White Earth, North Dakota
Current Conditions -  °F | °C
As of 6:55 AM on Wednesday 26 Nov 2014 (Local Time) from KD60 Reporting Station
Overcast Overcast  
Wind Chill: -1°   Ceiling: 5000
Heat Index:   Visibility: 10mi
Dew Point:   Wind: 6mph
Humidity: 92%   Direction: 10°N
Pressure: 30.28"   Gusts: NA
Location:  48.38°N, 102.77°W
Report Text: KD60 261255Z AUTO 01005KT 10SM FEW003 OVC050 M13/M14 A3028 RMK AO2
Loading
Personal Weather Stations






























Interactive Weather Map New forecast layout! Learn more

10-Day Weather Forecast

Advertisements
Track Severe Weather on mobile